sensor_id;sensor_type;location;lat;lon;timestamp;P1;durP1;ratioP1;P2;durP2;ratioP2
15358;SDS011;7779;49.596;11.070;2023-06-04T00:01:57;2.60;;;0.90;;
15358;SDS011;7779;49.596;11.070;2023-06-04T00:04:25;1.23;;;1.00;;
15358;SDS011;7779;49.596;11.070;2023-06-04T00:06:50;1.13;;;1.00;;
15358;SDS011;7779;49.596;11.070;2023-06-04T00:09:16;1.63;;;0.97;;
15358;SDS011;7779;49.596;11.070;2023-06-04T00:11:42;1.77;;;0.80;;
15358;SDS011;7779;49.596;11.070;2023-06-04T00:14:09;2.10;;;0.87;;
15358;SDS011;7779;49.596;11.070;2023-06-04T00:16:35;1.20;;;1.10;;
15358;SDS011;7779;49.596;11.070;2023-06-04T00:19:01;1.20;;;1.10;;
15358;SDS011;7779;49.596;11.070;2023-06-04T00:21:28;1.23;;;0.97;;
15358;SDS011;7779;49.596;11.070;2023-06-04T00:23:54;1.87;;;1.00;;
15358;SDS011;7779;49.596;11.070;2023-06-04T00:26:19;1.33;;;1.00;;
15358;SDS011;7779;49.596;11.070;2023-06-04T00:28:47;1.67;;;1.20;;
15358;SDS011;7779;49.596;11.070;2023-06-04T00:31:13;1.33;;;1.00;;
15358;SDS011;7779;49.596;11.070;2023-06-04T00:33:39;1.60;;;0.80;;
15358;SDS011;7779;49.596;11.070;2023-06-04T00:36:04;1.40;;;0.90;;
15358;SDS011;7779;49.596;11.070;2023-06-04T00:38:30;1.10;;;0.83;;
15358;SDS011;7779;49.596;11.070;2023-06-04T00:40:56;2.10;;;1.00;;
15358;SDS011;7779;49.596;11.070;2023-06-04T00:43:22;3.70;;;1.03;;
15358;SDS011;7779;49.596;11.070;2023-06-04T00:45:51;2.43;;;1.00;;
15358;SDS011;7779;49.596;11.070;2023-06-04T00:48:17;1.47;;;0.83;;
15358;SDS011;7779;49.596;11.070;2023-06-04T00:50:44;1.00;;;0.80;;
15358;SDS011;7779;49.596;11.070;2023-06-04T00:53:09;1.73;;;0.80;;
15358;SDS011;7779;49.596;11.070;2023-06-04T00:55:36;2.17;;;0.90;;
15358;SDS011;7779;49.596;11.070;2023-06-04T00:58:02;1.33;;;0.90;;
15358;SDS011;7779;49.596;11.070;2023-06-04T01:00:29;1.23;;;0.97;;
15358;SDS011;7779;49.596;11.070;2023-06-04T01:02:57;1.50;;;0.90;;
15358;SDS011;7779;49.596;11.070;2023-06-04T01:05:37;1.00;;;0.90;;
15358;SDS011;7779;49.596;11.070;2023-06-04T01:08:13;1.17;;;0.90;;
15358;SDS011;7779;49.596;11.070;2023-06-04T01:10:52;1.40;;;0.80;;
15358;SDS011;7779;49.596;11.070;2023-06-04T01:13:20;0.90;;;0.70;;
15358;SDS011;7779;49.596;11.070;2023-06-04T01:15:46;2.10;;;1.10;;
15358;SDS011;7779;49.596;11.070;2023-06-04T01:18:13;1.30;;;0.97;;
15358;SDS011;7779;49.596;11.070;2023-06-04T01:20:52;1.10;;;0.90;;
15358;SDS011;7779;49.596;11.070;2023-06-04T01:23:40;2.03;;;0.90;;
15358;SDS011;7779;49.596;11.070;2023-06-04T01:26:27;1.47;;;0.90;;
15358;SDS011;7779;49.596;11.070;2023-06-04T01:28:55;1.30;;;0.80;;
15358;SDS011;7779;49.596;11.070;2023-06-04T01:31:24;1.10;;;0.83;;
15358;SDS011;7779;49.596;11.070;2023-06-04T01:33:51;3.03;;;0.80;;
15358;SDS011;7779;49.596;11.070;2023-06-04T01:36:19;1.23;;;0.90;;
15358;SDS011;7779;49.596;11.070;2023-06-04T01:38:45;1.03;;;0.87;;
15358;SDS011;7779;49.596;11.070;2023-06-04T01:41:11;1.53;;;1.00;;
15358;SDS011;7779;49.596;11.070;2023-06-04T01:43:37;1.77;;;1.03;;
15358;SDS011;7779;49.596;11.070;2023-06-04T01:46:02;1.80;;;0.90;;
15358;SDS011;7779;49.596;11.070;2023-06-04T01:48:29;1.17;;;1.07;;
15358;SDS011;7779;49.596;11.070;2023-06-04T01:50:54;1.30;;;0.90;;
15358;SDS011;7779;49.596;11.070;2023-06-04T01:53:21;1.37;;;0.90;;
15358;SDS011;7779;49.596;11.070;2023-06-04T01:55:47;2.90;;;0.87;;
15358;SDS011;7779;49.596;11.070;2023-06-04T01:58:15;3.80;;;0.97;;
15358;SDS011;7779;49.596;11.070;2023-06-04T02:00:55;2.63;;;0.87;;
15358;SDS011;7779;49.596;11.070;2023-06-04T02:03:25;3.20;;;1.00;;
15358;SDS011;7779;49.596;11.070;2023-06-04T02:05:51;1.30;;;1.10;;
15358;SDS011;7779;49.596;11.070;2023-06-04T02:08:17;1.10;;;1.00;;
15358;SDS011;7779;49.596;11.070;2023-06-04T02:10:45;1.30;;;1.10;;
15358;SDS011;7779;49.596;11.070;2023-06-04T02:13:13;1.83;;;0.80;;
15358;SDS011;7779;49.596;11.070;2023-06-04T02:15:40;2.20;;;1.10;;
15358;SDS011;7779;49.596;11.070;2023-06-04T02:18:13;1.10;;;1.00;;
15358;SDS011;7779;49.596;11.070;2023-06-04T02:20:46;1.13;;;0.83;;
15358;SDS011;7779;49.596;11.070;2023-06-04T02:23:14;1.23;;;1.00;;
15358;SDS011;7779;49.596;11.070;2023-06-04T02:25:41;1.30;;;0.90;;
15358;SDS011;7779;49.596;11.070;2023-06-04T02:28:09;1.50;;;0.77;;
15358;SDS011;7779;49.596;11.070;2023-06-04T02:30:35;1.30;;;1.00;;
15358;SDS011;7779;49.596;11.070;2023-06-04T02:33:01;2.10;;;1.00;;
15358;SDS011;7779;49.596;11.070;2023-06-04T02:35:29;1.10;;;0.87;;
15358;SDS011;7779;49.596;11.070;2023-06-04T02:37:56;1.90;;;0.73;;
15358;SDS011;7779;49.596;11.070;2023-06-04T02:40:25;1.40;;;1.10;;
15358;SDS011;7779;49.596;11.070;2023-06-04T02:42:52;2.43;;;1.10;;
15358;SDS011;7779;49.596;11.070;2023-06-04T02:45:20;1.83;;;1.00;;
15358;SDS011;7779;49.596;11.070;2023-06-04T02:47:47;1.50;;;0.80;;
15358;SDS011;7779;49.596;11.070;2023-06-04T02:50:13;1.40;;;1.10;;
15358;SDS011;7779;49.596;11.070;2023-06-04T02:52:43;1.90;;;0.97;;
15358;SDS011;7779;49.596;11.070;2023-06-04T02:55:09;2.17;;;0.90;;
15358;SDS011;7779;49.596;11.070;2023-06-04T02:57:37;1.47;;;0.97;;
15358;SDS011;7779;49.596;11.070;2023-06-04T03:00:05;2.93;;;0.90;;
15358;SDS011;7779;49.596;11.070;2023-06-04T03:02:41;1.43;;;0.90;;
15358;SDS011;7779;49.596;11.070;2023-06-04T03:05:10;1.67;;;0.90;;
15358;SDS011;7779;49.596;11.070;2023-06-04T03:07:41;1.27;;;0.90;;
15358;SDS011;7779;49.596;11.070;2023-06-04T03:10:10;1.07;;;0.90;;
15358;SDS011;7779;49.596;11.070;2023-06-04T03:12:37;1.13;;;0.90;;
15358;SDS011;7779;49.596;11.070;2023-06-04T03:15:04;1.10;;;1.00;;
15358;SDS011;7779;49.596;11.070;2023-06-04T03:17:31;2.20;;;1.00;;
15358;SDS011;7779;49.596;11.070;2023-06-04T03:19:57;1.00;;;0.90;;
15358;SDS011;7779;49.596;11.070;2023-06-04T03:22:23;1.00;;;0.87;;
15358;SDS011;7779;49.596;11.070;2023-06-04T03:24:49;1.97;;;1.10;;
15358;SDS011;7779;49.596;11.070;2023-06-04T03:27:15;1.10;;;0.93;;
15358;SDS011;7779;49.596;11.070;2023-06-04T03:29:41;1.40;;;1.30;;
15358;SDS011;7779;49.596;11.070;2023-06-04T03:32:08;1.97;;;1.07;;
15358;SDS011;7779;49.596;11.070;2023-06-04T03:34:35;1.87;;;1.10;;
15358;SDS011;7779;49.596;11.070;2023-06-04T03:37:00;2.10;;;0.80;;
15358;SDS011;7779;49.596;11.070;2023-06-04T03:39:27;0.80;;;0.77;;
15358;SDS011;7779;49.596;11.070;2023-06-04T03:41:53;1.40;;;1.00;;
15358;SDS011;7779;49.596;11.070;2023-06-04T03:44:22;0.87;;;0.73;;
15358;SDS011;7779;49.596;11.070;2023-06-04T03:46:48;1.20;;;0.87;;
15358;SDS011;7779;49.596;11.070;2023-06-04T03:49:14;2.00;;;1.20;;
15358;SDS011;7779;49.596;11.070;2023-06-04T03:51:43;0.97;;;0.87;;
15358;SDS011;7779;49.596;11.070;2023-06-04T03:54:09;1.03;;;0.93;;
15358;SDS011;7779;49.596;11.070;2023-06-04T03:56:36;1.67;;;0.90;;
15358;SDS011;7779;49.596;11.070;2023-06-04T03:59:01;1.43;;;1.00;;
15358;SDS011;7779;49.596;11.070;2023-06-04T04:01:27;1.60;;;1.00;;
15358;SDS011;7779;49.596;11.070;2023-06-04T04:03:55;1.10;;;1.00;;
15358;SDS011;7779;49.596;11.070;2023-06-04T04:06:21;1.60;;;0.90;;
15358;SDS011;7779;49.596;11.070;2023-06-04T04:08:46;1.47;;;1.20;;
15358;SDS011;7779;49.596;11.070;2023-06-04T04:11:15;3.30;;;1.00;;
15358;SDS011;7779;49.596;11.070;2023-06-04T04:13:41;1.13;;;1.00;;
15358;SDS011;7779;49.596;11.070;2023-06-04T04:16:09;2.93;;;1.00;;
15358;SDS011;7779;49.596;11.070;2023-06-04T04:18:35;1.40;;;1.00;;
15358;SDS011;7779;49.596;11.070;2023-06-04T04:21:02;1.30;;;0.90;;
15358;SDS011;7779;49.596;11.070;2023-06-04T04:23:30;2.30;;;1.07;;
15358;SDS011;7779;49.596;11.070;2023-06-04T04:25:57;3.83;;;1.00;;
15358;SDS011;7779;49.596;11.070;2023-06-04T04:28:25;1.10;;;0.90;;
15358;SDS011;7779;49.596;11.070;2023-06-04T04:30:55;1.13;;;1.00;;
15358;SDS011;7779;49.596;11.070;2023-06-04T04:33:28;1.20;;;1.10;;
15358;SDS011;7779;49.596;11.070;2023-06-04T04:35:58;4.00;;;1.80;;
15358;SDS011;7779;49.596;11.070;2023-06-04T04:38:25;2.00;;;1.57;;
15358;SDS011;7779;49.596;11.070;2023-06-04T04:40:59;2.93;;;1.70;;
15358;SDS011;7779;49.596;11.070;2023-06-04T04:43:34;4.77;;;1.93;;
15358;SDS011;7779;49.596;11.070;2023-06-04T04:46:13;1.80;;;1.60;;
15358;SDS011;7779;49.596;11.070;2023-06-04T04:48:39;2.70;;;1.70;;
15358;SDS011;7779;49.596;11.070;2023-06-04T04:51:07;1.93;;;1.40;;
15358;SDS011;7779;49.596;11.070;2023-06-04T04:53:33;3.03;;;1.57;;
15358;SDS011;7779;49.596;11.070;2023-06-04T04:56:00;3.33;;;1.57;;
15358;SDS011;7779;49.596;11.070;2023-06-04T04:58:26;2.27;;;1.40;;
15358;SDS011;7779;49.596;11.070;2023-06-04T05:00:54;4.17;;;1.40;;
15358;SDS011;7779;49.596;11.070;2023-06-04T05:03:19;3.90;;;1.90;;
15358;SDS011;7779;49.596;11.070;2023-06-04T05:05:45;3.40;;;1.50;;
15358;SDS011;7779;49.596;11.070;2023-06-04T05:08:12;3.57;;;1.70;;
15358;SDS011;7779;49.596;11.070;2023-06-04T05:10:40;2.40;;;1.80;;
15358;SDS011;7779;49.596;11.070;2023-06-04T05:13:07;3.97;;;2.03;;
15358;SDS011;7779;49.596;11.070;2023-06-04T05:15:41;3.57;;;2.00;;
15358;SDS011;7779;49.596;11.070;2023-06-04T05:18:08;2.33;;;1.70;;
15358;SDS011;7779;49.596;11.070;2023-06-04T05:20:36;3.03;;;2.00;;
15358;SDS011;7779;49.596;11.070;2023-06-04T05:23:03;2.27;;;1.70;;
15358;SDS011;7779;49.596;11.070;2023-06-04T05:25:30;2.03;;;1.80;;
15358;SDS011;7779;49.596;11.070;2023-06-04T05:27:57;2.23;;;1.60;;
15358;SDS011;7779;49.596;11.070;2023-06-04T05:30:23;2.40;;;1.57;;
15358;SDS011;7779;49.596;11.070;2023-06-04T05:32:49;3.07;;;1.80;;
15358;SDS011;7779;49.596;11.070;2023-06-04T05:35:16;2.60;;;1.10;;
15358;SDS011;7779;49.596;11.070;2023-06-04T05:37:43;1.63;;;1.20;;
15358;SDS011;7779;49.596;11.070;2023-06-04T05:40:11;1.20;;;1.10;;
15358;SDS011;7779;49.596;11.070;2023-06-04T05:42:37;3.30;;;0.90;;
15358;SDS011;7779;49.596;11.070;2023-06-04T05:45:04;2.97;;;1.30;;
15358;SDS011;7779;49.596;11.070;2023-06-04T05:47:33;2.07;;;1.00;;
15358;SDS011;7779;49.596;11.070;2023-06-04T05:49:59;1.30;;;0.90;;
15358;SDS011;7779;49.596;11.070;2023-06-04T05:52:27;1.33;;;1.00;;
15358;SDS011;7779;49.596;11.070;2023-06-04T05:54:53;1.93;;;1.00;;
15358;SDS011;7779;49.596;11.070;2023-06-04T05:57:19;2.10;;;1.20;;
15358;SDS011;7779;49.596;11.070;2023-06-04T05:59:46;1.97;;;1.00;;
15358;SDS011;7779;49.596;11.070;2023-06-04T06:02:14;1.47;;;1.00;;
15358;SDS011;7779;49.596;11.070;2023-06-04T06:04:41;2.37;;;0.70;;
15358;SDS011;7779;49.596;11.070;2023-06-04T06:07:07;1.53;;;1.20;;
15358;SDS011;7779;49.596;11.070;2023-06-04T06:09:33;1.10;;;0.97;;
15358;SDS011;7779;49.596;11.070;2023-06-04T06:11:59;1.20;;;0.90;;
15358;SDS011;7779;49.596;11.070;2023-06-04T06:14:25;1.53;;;1.10;;
15358;SDS011;7779;49.596;11.070;2023-06-04T06:16:51;1.63;;;1.00;;
15358;SDS011;7779;49.596;11.070;2023-06-04T06:19:18;1.43;;;1.00;;
15358;SDS011;7779;49.596;11.070;2023-06-04T06:21:44;1.70;;;0.97;;
15358;SDS011;7779;49.596;11.070;2023-06-04T06:24:11;1.40;;;1.00;;
15358;SDS011;7779;49.596;11.070;2023-06-04T06:26:37;2.80;;;1.10;;
15358;SDS011;7779;49.596;11.070;2023-06-04T06:29:05;1.33;;;1.20;;
15358;SDS011;7779;49.596;11.070;2023-06-04T06:31:32;1.47;;;1.00;;
15358;SDS011;7779;49.596;11.070;2023-06-04T06:33:57;2.17;;;1.10;;
15358;SDS011;7779;49.596;11.070;2023-06-04T06:36:23;1.23;;;1.03;;
15358;SDS011;7779;49.596;11.070;2023-06-04T06:38:49;2.00;;;1.10;;
15358;SDS011;7779;49.596;11.070;2023-06-04T06:41:15;1.53;;;1.00;;
15358;SDS011;7779;49.596;11.070;2023-06-04T06:43:42;1.83;;;1.10;;
15358;SDS011;7779;49.596;11.070;2023-06-04T06:46:07;2.47;;;1.10;;
15358;SDS011;7779;49.596;11.070;2023-06-04T06:48:33;1.37;;;1.13;;
15358;SDS011;7779;49.596;11.070;2023-06-04T06:50:59;1.30;;;1.20;;
15358;SDS011;7779;49.596;11.070;2023-06-04T06:53:25;1.30;;;1.10;;
15358;SDS011;7779;49.596;11.070;2023-06-04T06:55:50;2.07;;;1.07;;
15358;SDS011;7779;49.596;11.070;2023-06-04T06:58:16;1.50;;;1.00;;
15358;SDS011;7779;49.596;11.070;2023-06-04T07:00:42;1.40;;;1.13;;
15358;SDS011;7779;49.596;11.070;2023-06-04T07:03:08;1.20;;;1.10;;
15358;SDS011;7779;49.596;11.070;2023-06-04T07:05:34;1.33;;;0.80;;
15358;SDS011;7779;49.596;11.070;2023-06-04T07:07:59;2.23;;;1.20;;
15358;SDS011;7779;49.596;11.070;2023-06-04T07:10:26;2.07;;;1.10;;
15358;SDS011;7779;49.596;11.070;2023-06-04T07:12:52;1.67;;;1.10;;
15358;SDS011;7779;49.596;11.070;2023-06-04T07:15:18;1.83;;;1.03;;
15358;SDS011;7779;49.596;11.070;2023-06-04T07:17:44;1.53;;;1.00;;
15358;SDS011;7779;49.596;11.070;2023-06-04T07:20:10;1.10;;;1.00;;
15358;SDS011;7779;49.596;11.070;2023-06-04T07:22:35;2.10;;;1.03;;
15358;SDS011;7779;49.596;11.070;2023-06-04T07:25:01;1.73;;;1.00;;
15358;SDS011;7779;49.596;11.070;2023-06-04T07:27:27;1.20;;;1.00;;
15358;SDS011;7779;49.596;11.070;2023-06-04T07:29:53;1.20;;;1.10;;
15358;SDS011;7779;49.596;11.070;2023-06-04T07:32:18;1.60;;;1.10;;
15358;SDS011;7779;49.596;11.070;2023-06-04T07:34:44;2.23;;;1.03;;
15358;SDS011;7779;49.596;11.070;2023-06-04T07:37:10;2.40;;;1.03;;
15358;SDS011;7779;49.596;11.070;2023-06-04T07:39:37;1.20;;;1.10;;
15358;SDS011;7779;49.596;11.070;2023-06-04T07:42:05;1.53;;;1.03;;
15358;SDS011;7779;49.596;11.070;2023-06-04T07:44:32;2.70;;;1.20;;
15358;SDS011;7779;49.596;11.070;2023-06-04T07:46:58;1.30;;;1.20;;
15358;SDS011;7779;49.596;11.070;2023-06-04T07:49:24;2.20;;;1.00;;
15358;SDS011;7779;49.596;11.070;2023-06-04T07:51:50;1.63;;;0.90;;
15358;SDS011;7779;49.596;11.070;2023-06-04T07:54:16;2.27;;;1.00;;
15358;SDS011;7779;49.596;11.070;2023-06-04T07:56:41;1.27;;;0.97;;
15358;SDS011;7779;49.596;11.070;2023-06-04T07:59:07;1.57;;;1.23;;
15358;SDS011;7779;49.596;11.070;2023-06-04T08:01:33;1.47;;;1.20;;
15358;SDS011;7779;49.596;11.070;2023-06-04T08:03:59;1.60;;;1.20;;
15358;SDS011;7779;49.596;11.070;2023-06-04T08:06:25;0.90;;;0.80;;
15358;SDS011;7779;49.596;11.070;2023-06-04T08:08:51;2.90;;;1.00;;
15358;SDS011;7779;49.596;11.070;2023-06-04T08:11:17;2.80;;;1.10;;
15358;SDS011;7779;49.596;11.070;2023-06-04T08:13:43;1.73;;;1.00;;
15358;SDS011;7779;49.596;11.070;2023-06-04T08:16:10;1.83;;;1.30;;
15358;SDS011;7779;49.596;11.070;2023-06-04T08:18:38;1.53;;;1.00;;
15358;SDS011;7779;49.596;11.070;2023-06-04T08:21:05;1.73;;;0.90;;
15358;SDS011;7779;49.596;11.070;2023-06-04T08:23:41;2.10;;;1.20;;
15358;SDS011;7779;49.596;11.070;2023-06-04T08:26:07;2.57;;;0.90;;
15358;SDS011;7779;49.596;11.070;2023-06-04T08:28:33;1.00;;;0.90;;
15358;SDS011;7779;49.596;11.070;2023-06-04T08:30:59;1.60;;;1.30;;
15358;SDS011;7779;49.596;11.070;2023-06-04T08:33:25;5.13;;;1.07;;
15358;SDS011;7779;49.596;11.070;2023-06-04T08:35:51;0.93;;;0.90;;
15358;SDS011;7779;49.596;11.070;2023-06-04T08:38:17;1.33;;;1.10;;
15358;SDS011;7779;49.596;11.070;2023-06-04T08:40:43;1.40;;;1.00;;
15358;SDS011;7779;49.596;11.070;2023-06-04T08:43:09;1.80;;;1.23;;
15358;SDS011;7779;49.596;11.070;2023-06-04T08:45:38;2.07;;;1.10;;
15358;SDS011;7779;49.596;11.070;2023-06-04T08:48:07;1.67;;;1.20;;
15358;SDS011;7779;49.596;11.070;2023-06-04T08:50:36;2.47;;;1.17;;
15358;SDS011;7779;49.596;11.070;2023-06-04T08:53:10;3.30;;;1.50;;
15358;SDS011;7779;49.596;11.070;2023-06-04T08:55:38;2.50;;;1.10;;
15358;SDS011;7779;49.596;11.070;2023-06-04T08:58:05;2.87;;;1.13;;
15358;SDS011;7779;49.596;11.070;2023-06-04T09:00:33;1.33;;;1.07;;
15358;SDS011;7779;49.596;11.070;2023-06-04T09:02:58;1.47;;;1.00;;
15358;SDS011;7779;49.596;11.070;2023-06-04T09:05:30;1.53;;;1.00;;
15358;SDS011;7779;49.596;11.070;2023-06-04T09:07:59;1.67;;;0.93;;
15358;SDS011;7779;49.596;11.070;2023-06-04T09:10:28;2.17;;;1.10;;
15358;SDS011;7779;49.596;11.070;2023-06-04T09:12:56;1.80;;;1.03;;
15358;SDS011;7779;49.596;11.070;2023-06-04T09:15:28;1.13;;;1.03;;
15358;SDS011;7779;49.596;11.070;2023-06-04T09:17:54;1.40;;;1.00;;
15358;SDS011;7779;49.596;11.070;2023-06-04T09:20:20;1.90;;;1.13;;
15358;SDS011;7779;49.596;11.070;2023-06-04T09:22:47;1.93;;;1.03;;
15358;SDS011;7779;49.596;11.070;2023-06-04T09:25:22;1.10;;;1.00;;
15358;SDS011;7779;49.596;11.070;2023-06-04T09:27:50;2.90;;;1.10;;
15358;SDS011;7779;49.596;11.070;2023-06-04T09:30:17;3.97;;;0.93;;
15358;SDS011;7779;49.596;11.070;2023-06-04T09:32:44;1.33;;;1.07;;
15358;SDS011;7779;49.596;11.070;2023-06-04T09:35:14;2.23;;;1.00;;
15358;SDS011;7779;49.596;11.070;2023-06-04T09:37:50;2.60;;;1.10;;
15358;SDS011;7779;49.596;11.070;2023-06-04T09:40:19;1.70;;;1.27;;
15358;SDS011;7779;49.596;11.070;2023-06-04T09:42:45;1.50;;;1.37;;
15358;SDS011;7779;49.596;11.070;2023-06-04T09:45:28;2.10;;;1.30;;
15358;SDS011;7779;49.596;11.070;2023-06-04T09:47:57;2.53;;;1.20;;
15358;SDS011;7779;49.596;11.070;2023-06-04T09:50:27;1.30;;;1.20;;
15358;SDS011;7779;49.596;11.070;2023-06-04T09:52:56;1.63;;;1.00;;
15358;SDS011;7779;49.596;11.070;2023-06-04T09:55:22;1.80;;;1.20;;
15358;SDS011;7779;49.596;11.070;2023-06-04T09:57:49;1.53;;;1.10;;
15358;SDS011;7779;49.596;11.070;2023-06-04T10:00:18;1.40;;;1.20;;
15358;SDS011;7779;49.596;11.070;2023-06-04T10:02:49;1.80;;;1.00;;
15358;SDS011;7779;49.596;11.070;2023-06-04T10:05:21;1.47;;;1.10;;
15358;SDS011;7779;49.596;11.070;2023-06-04T10:07:48;1.50;;;1.10;;
15358;SDS011;7779;49.596;11.070;2023-06-04T10:10:23;1.20;;;0.83;;
15358;SDS011;7779;49.596;11.070;2023-06-04T10:12:58;2.70;;;1.10;;
15358;SDS011;7779;49.596;11.070;2023-06-04T10:15:31;1.70;;;1.00;;
15358;SDS011;7779;49.596;11.070;2023-06-04T10:18:01;1.87;;;1.00;;
15358;SDS011;7779;49.596;11.070;2023-06-04T10:20:28;1.03;;;0.87;;
15358;SDS011;7779;49.596;11.070;2023-06-04T10:22:56;1.50;;;1.20;;
15358;SDS011;7779;49.596;11.070;2023-06-04T10:25:23;2.43;;;1.47;;
15358;SDS011;7779;49.596;11.070;2023-06-04T10:27:51;1.83;;;1.03;;
15358;SDS011;7779;49.596;11.070;2023-06-04T10:30:17;2.20;;;1.10;;
15358;SDS011;7779;49.596;11.070;2023-06-04T10:32:43;1.30;;;1.00;;
15358;SDS011;7779;49.596;11.070;2023-06-04T10:35:11;2.07;;;1.23;;
15358;SDS011;7779;49.596;11.070;2023-06-04T10:37:39;1.30;;;1.20;;
15358;SDS011;7779;49.596;11.070;2023-06-04T10:40:05;1.30;;;1.10;;
15358;SDS011;7779;49.596;11.070;2023-06-04T10:42:42;1.50;;;1.30;;
15358;SDS011;7779;49.596;11.070;2023-06-04T10:45:08;1.20;;;1.03;;
15358;SDS011;7779;49.596;11.070;2023-06-04T10:47:35;1.00;;;0.90;;
15358;SDS011;7779;49.596;11.070;2023-06-04T10:50:12;1.10;;;1.00;;
15358;SDS011;7779;49.596;11.070;2023-06-04T10:52:39;0.80;;;0.80;;
15358;SDS011;7779;49.596;11.070;2023-06-04T10:55:20;1.57;;;1.13;;
15358;SDS011;7779;49.596;11.070;2023-06-04T10:57:55;1.77;;;1.20;;
15358;SDS011;7779;49.596;11.070;2023-06-04T11:00:39;1.63;;;1.00;;
15358;SDS011;7779;49.596;11.070;2023-06-04T11:03:11;1.67;;;1.40;;
15358;SDS011;7779;49.596;11.070;2023-06-04T11:05:38;1.27;;;1.17;;
15358;SDS011;7779;49.596;11.070;2023-06-04T11:08:10;1.20;;;1.03;;
15358;SDS011;7779;49.596;11.070;2023-06-04T11:10:40;1.37;;;0.90;;
15358;SDS011;7779;49.596;11.070;2023-06-04T11:13:07;1.83;;;1.30;;
15358;SDS011;7779;49.596;11.070;2023-06-04T11:15:37;1.80;;;1.20;;
15358;SDS011;7779;49.596;11.070;2023-06-04T11:18:07;1.73;;;1.40;;
15358;SDS011;7779;49.596;11.070;2023-06-04T11:20:38;1.20;;;1.10;;
15358;SDS011;7779;49.596;11.070;2023-06-04T11:23:04;2.00;;;1.37;;
15358;SDS011;7779;49.596;11.070;2023-06-04T11:25:31;1.53;;;1.10;;
15358;SDS011;7779;49.596;11.070;2023-06-04T11:27:58;1.30;;;1.20;;
15358;SDS011;7779;49.596;11.070;2023-06-04T11:30:26;1.53;;;1.10;;
15358;SDS011;7779;49.596;11.070;2023-06-04T11:33:02;1.77;;;1.23;;
15358;SDS011;7779;49.596;11.070;2023-06-04T11:35:30;1.30;;;1.20;;
15358;SDS011;7779;49.596;11.070;2023-06-04T11:38:04;1.43;;;1.10;;
15358;SDS011;7779;49.596;11.070;2023-06-04T11:40:30;2.60;;;1.10;;
15358;SDS011;7779;49.596;11.070;2023-06-04T11:42:56;1.60;;;1.20;;
15358;SDS011;7779;49.596;11.070;2023-06-04T11:45:22;2.20;;;1.17;;
15358;SDS011;7779;49.596;11.070;2023-06-04T11:47:52;1.57;;;1.27;;
15358;SDS011;7779;49.596;11.070;2023-06-04T11:50:26;1.00;;;1.00;;
15358;SDS011;7779;49.596;11.070;2023-06-04T11:52:53;1.23;;;1.13;;
15358;SDS011;7779;49.596;11.070;2023-06-04T11:55:20;2.03;;;1.30;;
15358;SDS011;7779;49.596;11.070;2023-06-04T11:57:47;1.57;;;1.10;;
15358;SDS011;7779;49.596;11.070;2023-06-04T12:00:15;1.43;;;1.20;;
15358;SDS011;7779;49.596;11.070;2023-06-04T12:02:55;1.70;;;1.40;;
15358;SDS011;7779;49.596;11.070;2023-06-04T12:05:22;1.57;;;1.47;;
15358;SDS011;7779;49.596;11.070;2023-06-04T12:08:03;2.50;;;2.00;;
15358;SDS011;7779;49.596;11.070;2023-06-04T12:10:41;1.97;;;1.50;;
15358;SDS011;7779;49.596;11.070;2023-06-04T12:13:08;2.13;;;1.30;;
15358;SDS011;7779;49.596;11.070;2023-06-04T12:15:35;1.47;;;1.30;;
15358;SDS011;7779;49.596;11.070;2023-06-04T12:18:01;1.30;;;1.13;;
15358;SDS011;7779;49.596;11.070;2023-06-04T12:20:37;2.70;;;1.40;;
15358;SDS011;7779;49.596;11.070;2023-06-04T12:23:06;1.93;;;1.20;;
15358;SDS011;7779;49.596;11.070;2023-06-04T12:25:32;1.20;;;1.10;;
15358;SDS011;7779;49.596;11.070;2023-06-04T12:28:00;1.83;;;1.30;;
15358;SDS011;7779;49.596;11.070;2023-06-04T12:30:36;2.17;;;1.17;;
15358;SDS011;7779;49.596;11.070;2023-06-04T12:33:05;2.50;;;1.40;;
15358;SDS011;7779;49.596;11.070;2023-06-04T12:35:32;2.20;;;1.43;;
15358;SDS011;7779;49.596;11.070;2023-06-04T12:37:59;1.40;;;1.23;;
15358;SDS011;7779;49.596;11.070;2023-06-04T12:40:27;1.53;;;1.40;;
15358;SDS011;7779;49.596;11.070;2023-06-04T12:42:53;1.43;;;1.23;;
15358;SDS011;7779;49.596;11.070;2023-06-04T12:45:19;1.43;;;1.30;;
15358;SDS011;7779;49.596;11.070;2023-06-04T12:47:45;1.33;;;1.23;;
15358;SDS011;7779;49.596;11.070;2023-06-04T12:50:11;1.37;;;1.27;;
15358;SDS011;7779;49.596;11.070;2023-06-04T12:52:37;1.23;;;1.10;;
15358;SDS011;7779;49.596;11.070;2023-06-04T12:55:03;1.50;;;1.30;;
15358;SDS011;7779;49.596;11.070;2023-06-04T12:57:29;1.47;;;1.10;;
15358;SDS011;7779;49.596;11.070;2023-06-04T12:59:55;1.57;;;1.20;;
15358;SDS011;7779;49.596;11.070;2023-06-04T13:02:22;1.30;;;1.20;;
15358;SDS011;7779;49.596;11.070;2023-06-04T13:04:48;2.10;;;1.40;;
15358;SDS011;7779;49.596;11.070;2023-06-04T13:07:18;2.23;;;1.10;;
15358;SDS011;7779;49.596;11.070;2023-06-04T13:09:43;2.37;;;1.43;;
15358;SDS011;7779;49.596;11.070;2023-06-04T13:12:09;1.27;;;1.13;;
15358;SDS011;7779;49.596;11.070;2023-06-04T13:14:36;1.83;;;1.20;;
15358;SDS011;7779;49.596;11.070;2023-06-04T13:17:02;1.60;;;1.40;;
15358;SDS011;7779;49.596;11.070;2023-06-04T13:19:28;2.97;;;1.30;;
15358;SDS011;7779;49.596;11.070;2023-06-04T13:21:53;1.50;;;1.30;;
15358;SDS011;7779;49.596;11.070;2023-06-04T13:24:19;1.50;;;1.30;;
15358;SDS011;7779;49.596;11.070;2023-06-04T13:26:45;1.63;;;1.20;;
15358;SDS011;7779;49.596;11.070;2023-06-04T13:29:11;1.63;;;1.33;;
15358;SDS011;7779;49.596;11.070;2023-06-04T13:31:38;3.33;;;1.43;;
15358;SDS011;7779;49.596;11.070;2023-06-04T13:34:05;2.00;;;1.40;;
15358;SDS011;7779;49.596;11.070;2023-06-04T13:36:30;1.20;;;1.10;;
15358;SDS011;7779;49.596;11.070;2023-06-04T13:38:56;1.43;;;1.17;;
15358;SDS011;7779;49.596;11.070;2023-06-04T13:41:23;2.10;;;1.23;;
15358;SDS011;7779;49.596;11.070;2023-06-04T13:43:49;1.63;;;1.10;;
15358;SDS011;7779;49.596;11.070;2023-06-04T13:46:14;1.33;;;1.20;;
15358;SDS011;7779;49.596;11.070;2023-06-04T13:48:41;2.33;;;1.47;;
15358;SDS011;7779;49.596;11.070;2023-06-04T13:51:06;1.73;;;1.23;;
15358;SDS011;7779;49.596;11.070;2023-06-04T13:53:32;1.40;;;1.20;;
15358;SDS011;7779;49.596;11.070;2023-06-04T13:55:58;2.67;;;1.33;;
15358;SDS011;7779;49.596;11.070;2023-06-04T13:58:27;1.93;;;1.50;;
15358;SDS011;7779;49.596;11.070;2023-06-04T14:00:53;1.57;;;1.47;;
15358;SDS011;7779;49.596;11.070;2023-06-04T14:03:19;1.47;;;1.37;;
15358;SDS011;7779;49.596;11.070;2023-06-04T14:05:44;1.37;;;1.27;;
15358;SDS011;7779;49.596;11.070;2023-06-04T14:08:10;1.30;;;1.20;;
15358;SDS011;7779;49.596;11.070;2023-06-04T14:10:37;1.37;;;1.20;;
15358;SDS011;7779;49.596;11.070;2023-06-04T14:13:06;1.97;;;1.30;;
15358;SDS011;7779;49.596;11.070;2023-06-04T14:15:35;1.73;;;1.57;;
15358;SDS011;7779;49.596;11.070;2023-06-04T14:18:03;1.40;;;1.30;;
15358;SDS011;7779;49.596;11.070;2023-06-04T14:20:29;1.63;;;1.20;;
15358;SDS011;7779;49.596;11.070;2023-06-04T14:22:55;1.53;;;1.30;;
15358;SDS011;7779;49.596;11.070;2023-06-04T14:25:21;2.03;;;1.40;;
15358;SDS011;7779;49.596;11.070;2023-06-04T14:27:47;2.30;;;1.40;;
15358;SDS011;7779;49.596;11.070;2023-06-04T14:30:13;1.77;;;1.67;;
15358;SDS011;7779;49.596;11.070;2023-06-04T14:32:38;1.93;;;1.30;;
15358;SDS011;7779;49.596;11.070;2023-06-04T14:35:05;1.43;;;1.20;;
15358;SDS011;7779;49.596;11.070;2023-06-04T14:37:31;1.67;;;1.50;;
15358;SDS011;7779;49.596;11.070;2023-06-04T14:39:57;1.30;;;1.20;;
15358;SDS011;7779;49.596;11.070;2023-06-04T14:42:22;1.93;;;1.43;;
15358;SDS011;7779;49.596;11.070;2023-06-04T14:44:48;1.40;;;1.30;;
15358;SDS011;7779;49.596;11.070;2023-06-04T14:47:14;2.13;;;1.60;;
15358;SDS011;7779;49.596;11.070;2023-06-04T14:49:40;1.63;;;1.47;;
15358;SDS011;7779;49.596;11.070;2023-06-04T14:52:05;2.07;;;1.60;;